createdAt,value
2016-05-13T00:00:38.449Z,0
2016-05-13T00:01:38.420Z,0
2016-05-13T00:02:38.844Z,0
2016-05-13T00:03:38.394Z,0
2016-05-13T00:04:38.366Z,0
2016-05-13T00:05:38.384Z,0
2016-05-13T00:06:38.855Z,0
2016-05-13T00:07:38.327Z,0
2016-05-13T00:08:38.299Z,0
2016-05-13T00:09:38.285Z,0
2016-05-13T00:10:38.257Z,0
2016-05-13T00:11:38.275Z,0
2016-05-13T00:12:38.216Z,0
2016-05-13T00:13:38.218Z,0
2016-05-13T00:14:38.190Z,0
2016-05-13T00:15:38.020Z,0
2016-05-13T00:16:38.148Z,0
2016-05-13T00:17:38.009Z,0
2016-05-13T00:18:38.106Z,0
2016-05-13T00:19:37.797Z,0
2016-05-13T00:20:38.081Z,0
2016-05-13T00:21:38.068Z,0
2016-05-13T00:22:38.039Z,0
2016-05-13T00:23:37.886Z,0
2016-05-13T00:24:37.998Z,0
2016-05-13T00:25:37.984Z,0
2016-05-13T00:26:37.972Z,0
2016-05-13T00:27:37.943Z,0
2016-05-13T00:28:37.930Z,0
2016-05-13T00:29:37.917Z,0
2016-05-13T00:30:37.905Z,0
2016-05-13T00:31:37.891Z,0
2016-05-13T00:32:37.864Z,0
2016-05-13T00:33:37.678Z,0
2016-05-13T00:34:37.837Z,0
2016-05-13T00:35:37.793Z,0
2016-05-13T00:36:37.624Z,0
2016-05-13T00:37:37.766Z,0
2016-05-13T00:38:37.738Z,0
2016-05-13T00:39:37.585Z,0
2016-05-13T00:40:37.557Z,0
2016-05-13T00:41:37.685Z,0
2016-05-13T00:42:37.671Z,0
2016-05-13T00:43:37.643Z,0
2016-05-13T00:44:37.629Z,0
2016-05-13T00:45:37.616Z,0
2016-05-13T00:46:37.588Z,0
2016-05-13T00:47:37.435Z,0
2016-05-13T00:48:37.562Z,0
2016-05-13T00:49:37.534Z,0
2016-05-13T00:50:37.520Z,0
2016-05-13T00:51:37.336Z,0
2016-05-13T00:52:37.167Z,0
2016-05-13T00:53:37.466Z,0
2016-05-13T00:54:37.438Z,0
2016-05-13T00:55:37.268Z,0
2016-05-13T00:56:37.412Z,0
2016-05-13T00:57:37.384Z,0
2016-05-13T00:58:37.355Z,0
2016-05-13T00:59:37.342Z,0
2016-05-13T01:00:37.172Z,0
2016-05-13T01:01:37.155Z,0
2016-05-13T01:02:37.185Z,0
2016-05-13T01:03:37.357Z,0
2016-05-13T01:04:37.387Z,0
2016-05-13T01:05:37.418Z,0
2016-05-13T01:06:37.440Z,0
2016-05-13T01:07:37.428Z,0
2016-05-13T01:08:37.431Z,0
2016-05-13T01:09:37.418Z,0
2016-05-13T01:10:37.452Z,0
2016-05-13T01:11:37.437Z,0
2016-05-13T01:12:37.241Z,0
2016-05-13T01:13:37.390Z,0
2016-05-13T01:14:37.212Z,0
2016-05-13T01:15:37.204Z,0
2016-05-13T01:16:37.336Z,0
2016-05-13T01:17:37.356Z,0
2016-05-13T01:18:37.314Z,0
2016-05-13T01:19:37.130Z,0
2016-05-13T01:20:37.260Z,0
2016-05-13T01:21:37.092Z,0
2016-05-13T01:22:37.081Z,0
2016-05-13T01:23:37.256Z,0
2016-05-13T01:24:37.197Z,0
2016-05-13T01:25:37.170Z,0
2016-05-13T01:26:37.156Z,0
2016-05-13T01:27:37.145Z,0
2016-05-13T01:28:37.116Z,0
2016-05-13T01:29:37.118Z,0
2016-05-13T01:30:37.091Z,0
2016-05-13T01:31:37.063Z,0
2016-05-13T01:32:37.049Z,0
2016-05-13T01:33:37.052Z,0
2016-05-13T01:34:36.851Z,0
2016-05-13T01:35:36.995Z,0
2016-05-13T01:36:36.967Z,0
2016-05-13T01:37:36.954Z,0
2016-05-13T01:38:36.926Z,0
2016-05-13T01:39:36.928Z,0
2016-05-13T01:40:36.899Z,0
2016-05-13T01:41:36.871Z,0
2016-05-13T01:42:36.701Z,0
2016-05-13T01:43:36.829Z,0
2016-05-13T01:44:36.832Z,0
2016-05-13T01:45:36.803Z,0
2016-05-13T01:46:36.775Z,0
2016-05-13T01:47:36.606Z,0
2016-05-13T01:48:36.734Z,0
2016-05-13T01:49:36.565Z,0
2016-05-13T01:50:36.536Z,0
2016-05-13T01:51:36.679Z,0
2016-05-13T01:52:36.666Z,0
2016-05-13T01:53:36.481Z,0
2016-05-13T01:54:36.468Z,0
2016-05-13T01:55:36.596Z,0
2016-05-13T01:56:36.583Z,0
2016-05-13T01:57:36.555Z,0
2016-05-13T01:58:36.542Z,0
2016-05-13T01:59:36.528Z,0
2016-05-13T02:00:36.500Z,0
2016-05-13T02:01:36.487Z,0
2016-05-13T02:02:36.630Z,0
2016-05-13T02:03:36.289Z,0
2016-05-13T02:04:36.433Z,0
2016-05-13T02:05:36.248Z,0
2016-05-13T02:06:36.235Z,0
2016-05-13T02:07:36.362Z,0
2016-05-13T02:08:36.350Z,0
2016-05-13T02:09:36.321Z,0
2016-05-13T02:10:36.152Z,0
2016-05-13T02:11:36.296Z,0
2016-05-13T02:12:36.267Z,0
2016-05-13T02:13:36.237Z,0
2016-05-13T02:14:36.068Z,0
2016-05-13T02:15:36.197Z,0
2016-05-13T02:16:36.199Z,0
2016-05-13T02:17:36.062Z,0
2016-05-13T02:18:36.158Z,0
2016-05-13T02:19:36.128Z,0
2016-05-13T02:20:36.100Z,0
2016-05-13T02:21:36.103Z,0
2016-05-13T02:22:36.075Z,0
2016-05-13T02:23:36.062Z,0
2016-05-13T02:24:36.033Z,0
2016-05-13T02:25:36.020Z,0
2016-05-13T02:26:35.992Z,0
2016-05-13T02:27:35.978Z,0
2016-05-13T02:28:35.794Z,0
2016-05-13T02:29:35.938Z,0
2016-05-13T02:30:35.909Z,0
2016-05-13T02:31:35.896Z,0
2016-05-13T02:32:35.789Z,0
2016-05-13T02:33:35.854Z,0
2016-05-13T02:34:35.826Z,0
2016-05-13T02:35:35.812Z,0
2016-05-13T02:36:35.643Z,0
2016-05-13T02:37:35.616Z,0
2016-05-13T02:38:35.758Z,0
2016-05-13T02:39:35.746Z,0
2016-05-13T02:40:35.732Z,0
2016-05-13T02:41:35.688Z,0
2016-05-13T02:42:35.676Z,0
2016-05-13T02:43:35.646Z,0
2016-05-13T02:44:35.478Z,0
2016-05-13T02:45:35.621Z,0
2016-05-13T02:46:35.451Z,0
2016-05-13T02:47:35.454Z,0
2016-05-13T02:48:35.551Z,0
2016-05-13T02:49:35.538Z,0
2016-05-13T02:50:35.510Z,0
2016-05-13T02:51:35.497Z,0
2016-05-13T02:52:35.467Z,0
2016-05-13T02:53:35.298Z,0
2016-05-13T02:54:35.130Z,0
2016-05-13T02:55:35.413Z,0
2016-05-13T02:56:35.386Z,0
2016-05-13T02:57:35.216Z,4
2016-05-13T02:58:35.203Z,4
2016-05-13T02:59:35.330Z,0
2016-05-13T03:00:35.317Z,0
2016-05-13T03:01:35.149Z,4
2016-05-13T03:02:35.432Z,4
2016-05-13T03:03:35.263Z,4
2016-05-13T03:04:35.078Z,4
2016-05-13T03:05:35.222Z,4
2016-05-13T03:06:35.193Z,8
2016-05-13T03:07:35.180Z,4
2016-05-13T03:08:35.168Z,4
2016-05-13T03:09:35.139Z,8
2016-05-13T03:10:35.110Z,12
2016-05-13T03:11:35.097Z,12
2016-05-13T03:12:35.068Z,12
2016-05-13T03:13:34.899Z,12
2016-05-13T03:14:35.043Z,20
2016-05-13T03:15:35.014Z,20
2016-05-13T03:16:34.985Z,20
2016-05-13T03:17:34.817Z,24
2016-05-13T03:18:34.959Z,28
2016-05-13T03:19:34.931Z,32
2016-05-13T03:20:34.917Z,36
2016-05-13T03:21:34.889Z,44
2016-05-13T03:22:34.877Z,48
2016-05-13T03:23:34.692Z,56
2016-05-13T03:24:34.836Z,60
2016-05-13T03:25:34.806Z,68
2016-05-13T03:26:34.794Z,80
2016-05-13T03:27:34.765Z,92
2016-05-13T03:28:34.752Z,104
2016-05-13T03:29:34.724Z,116
2016-05-13T03:30:34.711Z,132
2016-05-13T03:31:34.697Z,148
2016-05-13T03:32:34.997Z,164
2016-05-13T03:33:34.656Z,180
2016-05-13T03:34:34.644Z,196
2016-05-13T03:35:34.616Z,212
2016-05-13T03:36:34.586Z,232
2016-05-13T03:37:34.574Z,252
2016-05-13T03:38:34.560Z,268
2016-05-13T03:39:34.376Z,292
2016-05-13T03:40:34.503Z,316
2016-05-13T03:41:34.491Z,336
2016-05-13T03:42:34.477Z,364
2016-05-13T03:43:34.449Z,388
2016-05-13T03:44:34.421Z,420
2016-05-13T03:45:34.407Z,448
2016-05-13T03:46:34.395Z,484
2016-05-13T03:47:34.226Z,524
2016-05-13T03:48:34.337Z,560
2016-05-13T03:49:34.324Z,604
2016-05-13T03:50:34.312Z,644
2016-05-13T03:51:34.283Z,680
2016-05-13T03:52:34.270Z,724
2016-05-13T03:53:34.242Z,764
2016-05-13T03:54:34.229Z,812
2016-05-13T03:55:34.215Z,860
2016-05-13T03:56:34.031Z,908
2016-05-13T03:57:34.158Z,956
2016-05-13T03:58:34.145Z,1008
2016-05-13T03:59:33.976Z,1064
2016-05-13T04:00:34.103Z,1124
2016-05-13T04:01:34.092Z,1180
2016-05-13T04:02:34.063Z,1244
2016-05-13T04:03:34.034Z,1308
2016-05-13T04:04:34.021Z,1376
2016-05-13T04:05:33.992Z,1452
2016-05-13T04:06:33.823Z,1524
2016-05-13T04:07:33.811Z,1600
2016-05-13T04:08:33.938Z,1680
2016-05-13T04:09:33.925Z,1756
2016-05-13T04:10:33.896Z,1836
2016-05-13T04:11:33.883Z,1916
2016-05-13T04:12:33.871Z,1992
2016-05-13T04:13:33.686Z,2072
2016-05-13T04:14:33.813Z,2148
2016-05-13T04:15:33.801Z,2224
2016-05-13T04:16:33.787Z,2300
2016-05-13T04:17:34.196Z,2376
2016-05-13T04:18:33.731Z,2452
2016-05-13T04:19:33.562Z,2520
2016-05-13T04:20:33.690Z,2596
2016-05-13T04:21:33.676Z,2668
2016-05-13T04:22:33.492Z,2748
2016-05-13T04:23:33.478Z,2828
2016-05-13T04:24:33.606Z,2904
2016-05-13T04:25:33.592Z,2988
2016-05-13T04:26:33.424Z,3068
2016-05-13T04:27:33.551Z,3148
2016-05-13T04:28:33.539Z,3228
2016-05-13T04:29:33.511Z,3308
2016-05-13T04:30:33.497Z,3388
2016-05-13T04:31:33.469Z,3468
2016-05-13T04:32:33.299Z,3548
2016-05-13T04:33:33.271Z,3632
2016-05-13T04:34:33.258Z,3712
2016-05-13T04:35:33.402Z,3796
2016-05-13T04:36:33.372Z,3880
2016-05-13T04:37:33.360Z,3956
2016-05-13T04:38:33.347Z,4028
2016-05-13T04:39:33.334Z,4096
2016-05-13T04:40:33.290Z,4160
2016-05-13T04:41:33.277Z,4220
2016-05-13T04:42:33.248Z,4288
2016-05-13T04:43:33.235Z,4364
2016-05-13T04:44:33.206Z,4448
2016-05-13T04:45:33.194Z,4544
2016-05-13T04:46:33.010Z,4640
2016-05-13T04:47:32.855Z,4740
2016-05-13T04:48:33.139Z,4840
2016-05-13T04:49:33.110Z,4936
2016-05-13T04:50:32.925Z,5032
2016-05-13T04:51:32.912Z,5124
2016-05-13T04:52:33.057Z,5212
2016-05-13T04:53:33.028Z,5300
2016-05-13T04:54:32.842Z,5376
2016-05-13T04:55:32.986Z,5452
2016-05-13T04:56:32.973Z,5524
2016-05-13T04:57:32.961Z,5604
2016-05-13T04:58:32.948Z,5696
2016-05-13T04:59:32.919Z,5792
2016-05-13T05:00:32.890Z,5896
2016-05-13T05:01:32.721Z,6000
2016-05-13T05:02:33.270Z,6108
2016-05-13T05:03:32.664Z,6220
2016-05-13T05:04:32.808Z,6332
2016-05-13T05:05:32.811Z,6460
2016-05-13T05:06:32.781Z,6608
2016-05-13T05:07:32.753Z,6756
2016-05-13T05:08:32.740Z,6908
2016-05-13T05:09:32.399Z,7060
2016-05-13T05:10:32.698Z,7208
2016-05-13T05:11:32.670Z,7364
2016-05-13T05:12:32.672Z,7540
2016-05-13T05:13:32.629Z,7716
2016-05-13T05:14:32.616Z,7896
2016-05-13T05:15:32.446Z,8068
2016-05-13T05:16:32.590Z,8236
2016-05-13T05:17:32.560Z,8400
2016-05-13T05:18:32.532Z,8580
2016-05-13T05:19:32.520Z,8760
2016-05-13T05:20:32.507Z,8944
2016-05-13T05:21:32.493Z,9136
2016-05-13T05:22:32.465Z,9332
2016-05-13T05:23:32.436Z,9528
2016-05-13T05:24:32.268Z,9728
2016-05-13T05:25:32.411Z,9936
2016-05-13T05:26:32.398Z,10144
2016-05-13T05:27:32.369Z,10356
2016-05-13T05:28:32.340Z,10584
2016-05-13T05:29:32.327Z,10816
2016-05-13T05:30:32.142Z,11072
2016-05-13T05:31:32.287Z,11328
2016-05-13T05:32:32.211Z,11552
2016-05-13T05:33:32.620Z,11780
2016-05-13T05:34:32.231Z,12000
2016-05-13T05:35:32.219Z,12228
2016-05-13T05:36:32.191Z,12448
2016-05-13T05:37:32.177Z,12672
2016-05-13T05:38:32.164Z,12892
2016-05-13T05:39:32.136Z,13168
2016-05-13T05:40:32.139Z,13472
2016-05-13T05:41:32.110Z,13740
2016-05-13T05:42:32.082Z,13936
2016-05-13T05:43:31.912Z,14144
2016-05-13T05:44:32.040Z,14348
2016-05-13T05:45:32.042Z,14560
2016-05-13T05:46:32.013Z,14772
2016-05-13T05:47:32.002Z,14976
2016-05-13T05:48:31.973Z,15192
2016-05-13T05:49:31.804Z,15432
2016-05-13T05:50:31.931Z,15680
2016-05-13T05:51:31.918Z,15920
2016-05-13T05:52:31.937Z,16128
2016-05-13T05:53:31.892Z,16264
2016-05-13T05:54:31.864Z,16432
2016-05-13T05:55:31.850Z,16624
2016-05-13T05:56:31.838Z,16776
2016-05-13T05:57:31.825Z,16528
2016-05-13T05:58:31.812Z,16704
2016-05-13T05:59:31.784Z,17092
2016-05-13T06:00:31.770Z,18080
2016-05-13T06:01:31.758Z,21344
2016-05-13T06:02:31.588Z,22880
2016-05-13T06:03:31.716Z,24832
2016-05-13T06:04:31.547Z,23520
2016-05-13T06:05:31.690Z,20448
2016-05-13T06:06:31.692Z,20320
2016-05-13T06:07:31.555Z,21664
2016-05-13T06:08:31.527Z,22752
2016-05-13T06:09:31.639Z,21152
2016-05-13T06:10:31.610Z,22720
2016-05-13T06:11:31.596Z,25184
2016-05-13T06:12:31.599Z,25376
2016-05-13T06:13:31.571Z,23808
2016-05-13T06:14:31.402Z,22592
2016-05-13T06:15:31.545Z,23680
2016-05-13T06:16:32.329Z,24384
2016-05-13T06:17:31.519Z,27072
2016-05-13T06:18:31.335Z,27136
2016-05-13T06:19:31.478Z,28000
2016-05-13T06:20:31.480Z,28864
2016-05-13T06:21:31.452Z,30528
2016-05-13T06:22:31.440Z,29248
2016-05-13T06:23:31.270Z,27104
2016-05-13T06:24:31.413Z,27136
2016-05-13T06:25:31.243Z,25344
2016-05-13T06:26:31.231Z,22560
2016-05-13T06:27:31.218Z,22112
2016-05-13T06:28:31.346Z,25152
2016-05-13T06:29:31.348Z,27136
2016-05-13T06:30:31.164Z,26816
2016-05-13T06:31:31.009Z,26144
2016-05-13T06:32:31.138Z,21760
2016-05-13T06:33:31.281Z,18432
2016-05-13T06:34:31.111Z,16352
2016-05-13T06:35:31.255Z,15636
2016-05-13T06:36:31.242Z,15640
2016-05-13T06:37:31.229Z,16032
2016-05-13T06:38:31.217Z,16180
2016-05-13T06:39:31.203Z,16932
2016-05-13T06:40:31.033Z,17840
2016-05-13T06:41:31.177Z,18816
2016-05-13T06:42:31.165Z,19328
2016-05-13T06:43:31.151Z,20672
2016-05-13T06:44:31.138Z,25376
2016-05-13T06:45:31.110Z,38848
2016-05-13T06:46:31.097Z,51392
2016-05-13T06:47:31.116Z,51648
2016-05-13T06:48:31.071Z,39520
2016-05-13T06:49:30.902Z,27648
2016-05-13T06:50:30.889Z,24864
2016-05-13T06:51:30.876Z,27456
2016-05-13T06:52:31.020Z,28800
2016-05-13T06:53:30.693Z,24896
2016-05-13T06:54:30.978Z,24192
2016-05-13T06:55:30.824Z,21184
2016-05-13T06:56:30.984Z,21856
2016-05-13T06:57:30.955Z,21472
2016-05-13T06:58:30.942Z,23168
2016-05-13T06:59:30.928Z,24288
2016-05-13T07:00:30.901Z,26464
2016-05-13T07:01:30.888Z,29184
2016-05-13T07:02:30.797Z,32000
2016-05-13T07:03:30.862Z,30880
2016-05-13T07:04:30.848Z,29568
2016-05-13T07:05:30.836Z,29632
2016-05-13T07:06:30.823Z,29728
2016-05-13T07:07:30.825Z,30304
2016-05-13T07:08:30.781Z,32832
2016-05-13T07:09:30.768Z,34368
2016-05-13T07:10:30.772Z,38528
2016-05-13T07:11:30.742Z,39936
2016-05-13T07:12:30.729Z,42560
2016-05-13T07:13:30.561Z,42144
2016-05-13T07:14:30.547Z,36128
2016-05-13T07:15:30.691Z,34592
2016-05-13T07:16:30.538Z,42848
2016-05-13T07:17:30.508Z,44672
2016-05-13T07:18:30.495Z,43904
2016-05-13T07:19:30.483Z,43712
2016-05-13T07:20:30.657Z,40000
2016-05-13T07:21:30.457Z,40864
2016-05-13T07:22:30.444Z,41376
2016-05-13T07:23:30.604Z,43008
2016-05-13T07:24:30.574Z,43680
2016-05-13T07:25:30.404Z,44160
2016-05-13T07:26:30.565Z,42784
2016-05-13T07:27:30.535Z,43584
2016-05-13T07:28:30.382Z,44000
2016-05-13T07:29:30.698Z,39488
2016-05-13T07:30:30.747Z,34368
2016-05-13T07:31:30.328Z,28192
2016-05-13T07:32:30.331Z,26176
2016-05-13T07:33:30.473Z,30528
2016-05-13T07:34:30.461Z,31520
2016-05-13T07:35:30.447Z,36544
2016-05-13T07:36:30.434Z,40928
2016-05-13T07:37:30.422Z,32864
2016-05-13T07:38:30.409Z,22272
2016-05-13T07:39:30.396Z,20736
2016-05-13T07:40:30.242Z,19840
2016-05-13T07:41:30.386Z,19904
2016-05-13T07:42:30.451Z,23392
2016-05-13T07:43:30.236Z,27584
2016-05-13T07:44:30.347Z,21824
2016-05-13T07:45:30.177Z,29664
2016-05-13T07:46:30.336Z,24448
2016-05-13T07:47:30.168Z,29856
2016-05-13T07:48:30.327Z,25536
2016-05-13T07:49:30.283Z,29504
2016-05-13T07:50:30.113Z,32192
2016-05-13T07:51:30.272Z,28736
2016-05-13T07:52:30.103Z,37920
2016-05-13T07:53:30.246Z,29536
2016-05-13T07:54:30.233Z,34304
2016-05-13T07:55:29.892Z,36384
2016-05-13T07:56:30.207Z,34496
2016-05-13T07:57:30.038Z,31776
2016-05-13T07:58:30.026Z,33088
2016-05-13T07:59:30.012Z,35648
2016-05-13T08:00:30.203Z,38528
2016-05-13T08:01:30.143Z,40672
2016-05-13T08:02:29.879Z,41056
2016-05-13T08:03:30.117Z,39808
2016-05-13T08:04:29.947Z,41600
2016-05-13T08:05:30.076Z,44768
2016-05-13T08:06:29.937Z,46336
2016-05-13T08:07:29.909Z,43456
2016-05-13T08:08:30.053Z,43936
2016-05-13T08:09:30.040Z,44800
2016-05-13T08:10:30.026Z,47424
2016-05-13T08:11:30.013Z,48096
2016-05-13T08:12:29.860Z,45280
2016-05-13T08:13:29.988Z,46912
2016-05-13T08:14:30.006Z,49472
2016-05-13T08:15:30.009Z,43616
2016-05-13T08:16:29.949Z,46464
2016-05-13T08:17:30.186Z,49088
2016-05-13T08:18:29.939Z,54208
2016-05-13T08:19:29.925Z,56672
2016-05-13T08:20:29.913Z,58560
2016-05-13T08:21:29.743Z,54016
2016-05-13T08:22:29.903Z,51744
2016-05-13T08:23:29.890Z,54304
2016-05-13T08:24:29.876Z,55040
2016-05-13T08:25:29.849Z,56128
2016-05-13T08:26:29.835Z,57184
2016-05-13T08:27:29.838Z,60256
2016-05-13T08:28:29.824Z,62560
2016-05-13T08:29:29.812Z,63168
2016-05-13T08:30:29.799Z,63840
2016-05-13T08:31:29.786Z,63904
2016-05-13T08:32:30.382Z,62080
2016-05-13T08:33:29.620Z,60928
2016-05-13T08:34:29.762Z,57728
2016-05-13T08:35:29.609Z,58176
2016-05-13T08:36:29.612Z,56352
2016-05-13T08:37:29.756Z,55744
2016-05-13T08:38:29.571Z,50432
2016-05-13T08:39:29.573Z,55264
2016-05-13T08:40:29.701Z,62016
2016-05-13T08:41:29.547Z,65152
2016-05-13T08:42:29.691Z,65664
2016-05-13T08:43:29.678Z,62272
2016-05-13T08:44:29.680Z,59232
2016-05-13T08:45:29.667Z,65728
2016-05-13T08:46:29.686Z,68256
2016-05-13T08:47:29.658Z,61280
2016-05-13T08:48:29.644Z,59200
2016-05-13T08:49:29.628Z,67424
2016-05-13T08:50:29.616Z,67360
2016-05-13T08:51:29.602Z,65376
2016-05-13T08:52:29.605Z,68960
2016-05-13T08:53:29.577Z,71520
2016-05-13T08:54:29.580Z,68416
2016-05-13T08:55:29.660Z,66464
2016-05-13T08:56:29.413Z,68960
2016-05-13T08:57:29.400Z,68640
2016-05-13T08:58:29.246Z,67264
2016-05-13T08:59:29.546Z,67712
2016-05-13T09:00:29.533Z,71072
2016-05-13T09:01:29.521Z,69728
2016-05-13T09:02:29.523Z,67776
2016-05-13T09:03:29.526Z,66688
2016-05-13T09:04:29.497Z,62912
2016-05-13T09:05:29.187Z,61376
2016-05-13T09:06:29.346Z,61312
2016-05-13T09:07:29.333Z,57280
2016-05-13T09:08:29.476Z,56832
2016-05-13T09:09:29.464Z,66080
2016-05-13T09:10:29.482Z,72896
2016-05-13T09:11:29.453Z,75232
2016-05-13T09:12:29.456Z,71776
2016-05-13T09:13:29.443Z,73280
2016-05-13T09:14:29.431Z,72384
2016-05-13T09:15:29.433Z,71296
2016-05-13T09:16:29.420Z,70816
2016-05-13T09:17:29.672Z,69664
2016-05-13T09:18:29.394Z,71552
2016-05-13T09:19:29.397Z,70880
2016-05-13T09:20:29.384Z,74080
2016-05-13T09:21:29.230Z,76672
2016-05-13T09:22:29.374Z,74944
2016-05-13T09:23:29.377Z,70912
2016-05-13T09:24:29.222Z,72064
2016-05-13T09:25:29.350Z,71904
2016-05-13T09:26:29.353Z,72992
2016-05-13T09:27:29.356Z,74048
2016-05-13T09:28:29.187Z,71616
2016-05-13T09:29:29.174Z,69536
2016-05-13T09:30:29.363Z,71616
2016-05-13T09:31:29.320Z,72928
2016-05-13T09:32:29.010Z,75680
2016-05-13T09:33:29.154Z,73088
2016-05-13T09:34:29.312Z,69888
2016-05-13T09:35:29.299Z,71072
2016-05-13T09:36:29.146Z,68736
2016-05-13T09:37:29.304Z,68768
2016-05-13T09:38:29.292Z,71040
2016-05-13T09:39:29.294Z,74816
2016-05-13T09:40:29.282Z,77184
2016-05-13T09:41:29.268Z,75264
2016-05-13T09:42:29.115Z,75488
2016-05-13T09:43:30.305Z,77024
2016-05-13T09:44:29.276Z,72608
2016-05-13T09:45:29.279Z,72928
2016-05-13T09:46:29.094Z,73632
2016-05-13T09:47:31.144Z,74496
2016-05-13T09:48:31.680Z,79808
2016-05-13T09:49:29.493Z,83104
2016-05-13T09:50:29.246Z,82080
2016-05-13T09:51:29.233Z,81120
2016-05-13T09:52:30.079Z,82240
2016-05-13T09:53:29.222Z,79232
2016-05-13T09:54:29.210Z,78464
2016-05-13T09:55:29.227Z,78624
2016-05-13T09:56:29.074Z,79584
2016-05-13T09:57:29.046Z,82208
2016-05-13T09:58:29.032Z,80032
2016-05-13T09:59:29.192Z,79904
2016-05-13T10:00:29.194Z,81760
2016-05-13T10:01:29.182Z,84000
2016-05-13T10:02:29.199Z,82912
2016-05-13T10:03:29.046Z,84992
2016-05-13T10:04:29.159Z,79936
2016-05-13T10:05:29.161Z,75296
2016-05-13T10:06:29.164Z,73280
2016-05-13T10:07:29.151Z,78080
2016-05-13T10:08:29.016Z,81728
2016-05-13T10:09:29.218Z,78912
2016-05-13T10:10:29.263Z,75424
2016-05-13T10:11:29.293Z,81216
2016-05-13T10:12:29.323Z,83392
2016-05-13T10:13:29.357Z,84992
2016-05-13T10:14:29.375Z,86560
2016-05-13T10:15:29.221Z,85888
2016-05-13T10:16:29.238Z,80800
2016-05-13T10:17:29.397Z,79648
2016-05-13T10:18:29.395Z,82176
2016-05-13T10:19:29.247Z,81056
2016-05-13T10:20:29.411Z,82048
2016-05-13T10:21:29.403Z,82880
2016-05-13T10:22:29.255Z,82784
2016-05-13T10:23:29.403Z,84032
2016-05-13T10:24:29.407Z,67680
2016-05-13T10:25:29.412Z,32448
2016-05-13T10:26:29.417Z,19680
2016-05-13T10:27:29.390Z,19436
2016-05-13T10:28:29.393Z,25344
2016-05-13T10:29:29.397Z,55904
2016-05-13T10:30:29.447Z,77504
2016-05-13T10:31:29.403Z,76320
2016-05-13T10:32:29.470Z,74080
2016-05-13T10:33:29.380Z,73408
2016-05-13T10:34:29.366Z,70272
2016-05-13T10:35:29.369Z,59968
2016-05-13T10:36:29.358Z,63488
2016-05-13T10:37:29.361Z,77440
2016-05-13T10:38:29.347Z,87104
2016-05-13T10:39:29.350Z,85664
2016-05-13T10:40:29.213Z,79200
2016-05-13T10:41:29.341Z,80448
2016-05-13T10:42:29.327Z,84448
2016-05-13T10:43:29.330Z,83584
2016-05-13T10:44:29.364Z,86496
2016-05-13T10:45:29.319Z,88640
2016-05-13T10:46:29.307Z,86400
2016-05-13T10:47:29.168Z,85984
2016-05-13T10:48:29.609Z,83840
2016-05-13T10:49:29.174Z,81088
2016-05-13T10:50:29.130Z,81216
2016-05-13T10:51:29.133Z,85536
2016-05-13T10:52:29.277Z,85216
2016-05-13T10:53:29.123Z,81248
2016-05-13T10:54:29.296Z,86656
2016-05-13T10:55:29.581Z,90656
2016-05-13T10:56:29.271Z,87392
2016-05-13T10:57:29.258Z,83360
2016-05-13T10:58:29.246Z,83392
2016-05-13T10:59:29.107Z,83744
2016-05-13T11:00:29.281Z,86080
2016-05-13T11:01:29.097Z,85600
2016-05-13T11:02:28.990Z,76960
2016-05-13T11:03:29.290Z,73920
2016-05-13T11:04:29.261Z,78784
2016-05-13T11:05:29.092Z,76704
2016-05-13T11:06:29.220Z,77696
2016-05-13T11:07:29.238Z,81664
2016-05-13T11:08:29.225Z,83904
2016-05-13T11:09:29.087Z,85600
2016-05-13T11:10:29.215Z,83936
2016-05-13T11:11:29.217Z,79936
2016-05-13T11:12:29.220Z,79840
2016-05-13T11:13:29.208Z,80448
2016-05-13T11:14:29.210Z,82272
2016-05-13T11:15:29.197Z,82848
2016-05-13T11:16:29.059Z,87360
2016-05-13T11:17:29.218Z,87200
2016-05-13T11:18:29.783Z,82592
2016-05-13T11:19:29.068Z,80768
2016-05-13T11:20:29.038Z,86240
2016-05-13T11:21:29.182Z,86656
2016-05-13T11:22:29.201Z,83488
2016-05-13T11:23:29.188Z,71456
2016-05-13T11:24:29.018Z,64064
2016-05-13T11:25:29.177Z,62848
2016-05-13T11:26:29.180Z,66784
2016-05-13T11:27:32.292Z,67040
2016-05-13T11:28:29.170Z,62688
2016-05-13T11:29:29.173Z,53664
2016-05-13T11:30:29.159Z,59392
2016-05-13T11:31:29.146Z,50464
2016-05-13T11:32:28.993Z,43840
2016-05-13T11:33:28.839Z,52128
2016-05-13T11:34:28.983Z,60576
2016-05-13T11:35:29.142Z,55744
2016-05-13T11:36:28.972Z,67584
2016-05-13T11:37:28.819Z,65632
2016-05-13T11:38:29.119Z,73952
2016-05-13T11:39:29.122Z,69792
2016-05-13T11:40:28.967Z,68256
2016-05-13T11:41:28.955Z,69696
2016-05-13T11:42:28.941Z,80096
2016-05-13T11:43:29.085Z,84032
2016-05-13T11:44:29.088Z,83008
2016-05-13T11:45:29.090Z,79296
2016-05-13T11:46:29.093Z,75584
2016-05-13T11:47:28.955Z,79232
2016-05-13T11:48:28.942Z,71584
2016-05-13T11:49:29.086Z,80032
2016-05-13T11:50:29.058Z,77024
2016-05-13T11:51:28.904Z,84704
2016-05-13T11:52:29.062Z,88544
2016-05-13T11:53:29.049Z,89728
2016-05-13T11:54:29.068Z,93856
2016-05-13T11:55:32.383Z,91008
2016-05-13T11:56:29.042Z,90272
2016-05-13T11:57:29.029Z,92000
2016-05-13T11:58:29.032Z,94944
2016-05-13T11:59:29.034Z,97984
2016-05-13T12:00:29.037Z,97696
2016-05-13T12:01:29.023Z,95104
2016-05-13T12:02:29.340Z,91584
2016-05-13T12:03:29.014Z,89728
2016-05-13T12:04:28.860Z,89024
2016-05-13T12:05:28.723Z,86656
2016-05-13T12:06:29.022Z,87648
2016-05-13T12:07:29.009Z,90336
2016-05-13T12:08:28.996Z,88096
2016-05-13T12:09:28.998Z,84544
2016-05-13T12:10:29.001Z,82496
2016-05-13T12:11:28.833Z,80704
2016-05-13T12:12:28.991Z,81184
2016-05-13T12:13:29.619Z,78560
2016-05-13T12:14:28.996Z,66080
2016-05-13T12:15:28.983Z,67616
2016-05-13T12:16:28.986Z,58560
2016-05-13T12:17:29.177Z,35104
2016-05-13T12:18:28.976Z,40096
2016-05-13T12:19:28.979Z,44096
2016-05-13T12:20:28.810Z,45056
2016-05-13T12:21:29.000Z,24448
2016-05-13T12:22:28.799Z,29824
2016-05-13T12:23:28.958Z,40032
2016-05-13T12:24:28.788Z,50176
2016-05-13T12:25:28.933Z,44960
2016-05-13T12:26:28.779Z,54336
2016-05-13T12:27:28.938Z,48960
2016-05-13T12:28:28.925Z,39072
2016-05-13T12:29:28.912Z,44224
2016-05-13T12:30:28.915Z,41408
2016-05-13T12:31:28.902Z,40736
2016-05-13T12:32:28.935Z,48544
2016-05-13T12:33:28.892Z,59168
2016-05-13T12:34:28.941Z,62208
2016-05-13T12:35:28.881Z,68960
2016-05-13T12:36:28.884Z,68960
2016-05-13T12:37:28.871Z,42112
2016-05-13T12:38:29.264Z,30848
2016-05-13T12:39:28.846Z,40032
2016-05-13T12:40:28.692Z,55424
2016-05-13T12:41:28.834Z,70592
2016-05-13T12:42:28.823Z,50848
2016-05-13T12:43:28.840Z,89760
2016-05-13T12:44:28.812Z,89376
2016-05-13T12:45:28.815Z,91264
2016-05-13T12:46:28.802Z,91744
2016-05-13T12:47:29.586Z,79264
2016-05-13T12:48:28.869Z,84640
2016-05-13T12:49:28.778Z,86816
2016-05-13T12:50:28.797Z,76448
2016-05-13T12:51:28.783Z,52768
2016-05-13T12:52:28.802Z,51136
2016-05-13T12:53:28.758Z,60992
2016-05-13T12:54:28.604Z,72320
2016-05-13T12:55:28.763Z,29376
2016-05-13T12:56:28.765Z,25504
2016-05-13T12:57:28.752Z,28128
2016-05-13T12:58:28.740Z,77568
2016-05-13T12:59:28.743Z,75968
2016-05-13T13:00:28.745Z,76544
2016-05-13T13:01:28.732Z,82464
2016-05-13T13:02:29.313Z,91616
2016-05-13T13:03:28.723Z,86080
2016-05-13T13:04:28.553Z,56864
2016-05-13T13:05:28.759Z,86464
2016-05-13T13:06:28.715Z,90624
2016-05-13T13:07:28.546Z,86368
2016-05-13T13:08:28.720Z,84544
2016-05-13T13:09:28.692Z,87712
2016-05-13T13:10:28.695Z,89024
2016-05-13T13:11:28.697Z,80928
2016-05-13T13:12:28.684Z,59520
2016-05-13T13:13:28.670Z,93408
2016-05-13T13:14:28.673Z,90528
2016-05-13T13:15:28.676Z,59808
2016-05-13T13:16:28.664Z,36608
2016-05-13T13:17:29.119Z,38272
2016-05-13T13:18:28.669Z,43136
2016-05-13T13:19:28.499Z,83296
2016-05-13T13:20:28.658Z,22784
2016-05-13T13:21:28.662Z,96960
2016-05-13T13:22:28.586Z,93696
2016-05-13T13:23:28.651Z,84512